Time;durP1;ratioP1;P1;durP2;ratioP2;P2;SDS_P1;SDS_P2;PMS_P1;PMS_P2;Temp;Humidity;BMP_temperature;BMP_pressure;BME280_temperature;BME280_humidity;BME280_pressure;Samples;Min_cycle;Max_cycle;Signal;HPM_P1;HPM_P2
2022/03/27 00:00:16;;;;;;;40.15;21.63;;;1.60;99.90;;;;;;5070841;28;20108;-57
2022/03/27 00:02:42;;;;;;;35.95;20.63;;;1.70;99.90;;;;;;5071205;28;20109;-59
2022/03/27 00:05:10;;;;;;;40.53;20.67;;;1.70;99.90;;;;;;5069834;28;20024;-60
2022/03/27 00:07:36;;;;;;;31.42;20.23;;;1.70;99.90;;;;;;5071061;28;20017;-57
2022/03/27 00:10:02;;;;;;;43.50;23.23;;;1.60;99.90;;;;;;5070793;28;20028;-58
2022/03/27 00:12:28;;;;;;;36.40;22.27;;;1.50;99.90;;;;;;5071012;28;20159;-58
2022/03/27 00:14:54;;;;;;;53.85;23.90;;;1.60;99.90;;;;;;5070599;28;20131;-59
2022/03/27 00:17:19;;;;;;;35.78;20.67;;;1.50;99.90;;;;;;5070830;28;20036;-58
2022/03/27 00:19:45;;;;;;;38.97;21.00;;;1.60;99.90;;;;;;5070862;28;20029;-59
2022/03/27 00:22:11;;;;;;;42.63;21.42;;;1.60;99.90;;;;;;5070875;28;20685;-58
2022/03/27 00:24:36;;;;;;;36.80;20.58;;;1.50;99.90;;;;;;5070850;28;20035;-59
2022/03/27 00:27:02;;;;;;;37.00;20.63;;;1.50;99.90;;;;;;5070763;28;20492;-58
2022/03/27 00:29:28;;;;;;;40.05;22.23;;;1.40;99.90;;;;;;5070751;28;20107;-59
2022/03/27 00:31:54;;;;;;;35.35;21.27;;;1.40;99.90;;;;;;5070641;28;20043;-59
2022/03/27 00:34:21;;;;;;;33.33;18.85;;;1.40;99.90;;;;;;5070877;28;20020;-59
2022/03/27 00:36:48;;;;;;;36.45;19.95;;;1.40;99.90;;;;;;5070718;28;20028;-59
2022/03/27 00:39:14;;;;;;;37.80;21.25;;;1.30;99.90;;;;;;5069469;28;20016;-57
2022/03/27 00:41:39;;;;;;;39.70;22.27;;;1.30;99.90;;;;;;5070790;28;20123;-57
2022/03/27 00:44:05;;;;;;;41.47;20.67;;;1.30;99.90;;;;;;5073167;28;20056;-59
2022/03/27 00:46:31;;;;;;;40.95;21.83;;;1.30;99.90;;;;;;5074334;28;20035;-58
2022/03/27 00:48:57;;;;;;;33.10;19.85;;;1.30;99.90;;;;;;5074230;28;20488;-58
2022/03/27 00:51:23;;;;;;;42.58;22.77;;;1.30;99.90;;;;;;5074246;28;20036;-59
2022/03/27 00:53:49;;;;;;;34.97;20.33;;;1.20;99.90;;;;;;5074104;28;20110;-58
2022/03/27 00:56:14;;;;;;;43.08;21.88;;;1.20;99.90;;;;;;5074125;28;20460;-59
2022/03/27 00:58:40;;;;;;;34.00;20.38;;;1.20;99.90;;;;;;5074126;28;20111;-59
2022/03/27 01:01:35;;;;;;;32.85;20.33;;;1.20;99.90;;;;;;5074148;28;20522;-59
2022/03/27 01:04:05;;;;;;;39.30;21.60;;;1.10;99.90;;;;;;5074020;28;20063;-58
2022/03/27 01:06:36;;;;;;;36.90;20.67;;;1.10;99.90;;;;;;5074033;28;20094;-58
2022/03/27 01:11:49;;;;;;;37.38;21.25;;;1.10;99.90;;;;;;5073884;28;20554;-59
2022/03/27 01:14:22;;;;;;;35.30;21.38;;;1.00;99.90;;;;;;5073667;28;20132;-59
2022/03/27 01:17:01;;;;;;;40.20;20.90;;;0.90;99.90;;;;;;5073898;28;20020;-59
2022/03/27 01:19:28;;;;;;;37.25;20.65;;;0.90;99.90;;;;;;5073929;28;20021;-59
2022/03/27 01:21:54;;;;;;;41.58;19.77;;;0.90;99.90;;;;;;5073683;28;20120;-58
2022/03/27 01:24:20;;;;;;;34.25;20.08;;;0.90;99.90;;;;;;5073889;28;20104;-59
2022/03/27 01:26:46;;;;;;;34.50;20.50;;;0.90;99.90;;;;;;5073689;28;20058;-58
2022/03/27 01:29:12;;;;;;;36.35;19.75;;;0.80;99.90;;;;;;5073529;28;20104;-58
2022/03/27 01:31:38;;;;;;;47.28;21.52;;;0.80;99.90;;;;;;5073538;28;20033;-57
2022/03/27 01:34:05;;;;;;;33.03;20.42;;;0.80;99.90;;;;;;5073396;28;20029;-58
2022/03/27 01:36:35;;;;;;;45.05;20.27;;;0.80;99.90;;;;;;5073471;28;20021;-60
2022/03/27 01:39:04;;;;;;;36.38;18.75;;;0.80;99.90;;;;;;5073429;28;20028;-57
2022/03/27 01:41:30;;;;;;;34.17;19.73;;;0.80;99.90;;;;;;5073441;28;20097;-59
2022/03/27 01:43:56;;;;;;;31.52;18.38;;;0.80;99.90;;;;;;5073099;28;20471;-59
2022/03/27 01:46:22;;;;;;;33.85;19.80;;;0.70;99.90;;;;;;5073478;28;20048;-59
2022/03/27 01:48:48;;;;;;;46.60;20.38;;;0.80;99.90;;;;;;5073098;28;20031;-59
2022/03/27 01:51:14;;;;;;;34.92;20.38;;;0.80;99.90;;;;;;5071891;28;20025;-58
2022/03/27 01:53:40;;;;;;;28.05;17.30;;;0.80;99.90;;;;;;5073153;28;20031;-57
2022/03/27 01:56:07;;;;;;;33.08;17.75;;;0.70;99.90;;;;;;5072568;28;20529;-59
2022/03/27 01:58:37;;;;;;;31.10;18.65;;;0.60;99.90;;;;;;5072986;28;20054;-56
2022/03/27 02:01:02;;;;;;;33.90;19.17;;;0.60;99.90;;;;;;5072910;28;20017;-57
2022/03/27 02:03:28;;;;;;;33.40;18.27;;;0.50;99.90;;;;;;5073002;28;20380;-59
2022/03/27 02:05:56;;;;;;;32.55;19.15;;;0.50;99.90;;;;;;5072749;28;20063;-59
2022/03/27 02:08:23;;;;;;;32.28;20.05;;;0.50;99.90;;;;;;5071643;28;20032;-57
2022/03/27 02:10:49;;;;;;;32.35;17.42;;;0.40;99.90;;;;;;5072318;28;20035;-60
2022/03/27 02:13:18;;;;;;;33.47;17.15;;;0.40;99.90;;;;;;5072719;28;20482;-59
2022/03/27 02:15:47;;;;;;;35.80;18.67;;;0.30;99.90;;;;;;5072730;28;20025;-57
2022/03/27 02:18:15;;;;;;;39.25;20.58;;;0.40;99.90;;;;;;5071334;28;20035;-57
2022/03/27 02:20:41;;;;;;;31.65;17.13;;;0.40;99.90;;;;;;5072655;28;20031;-57
2022/03/27 02:23:07;;;;;;;30.45;17.55;;;0.40;99.90;;;;;;5072500;28;20032;-59
2022/03/27 02:25:33;;;;;;;38.25;19.10;;;0.30;99.90;;;;;;5072327;28;20593;-60
2022/03/27 02:27:59;;;;;;;24.98;16.48;;;0.40;99.90;;;;;;5072346;28;20036;-59
2022/03/27 02:30:25;;;;;;;39.75;17.73;;;0.30;99.90;;;;;;5072367;28;20044;-58
2022/03/27 02:32:50;;;;;;;34.25;18.20;;;0.30;99.90;;;;;;5072336;28;20078;-58
2022/03/27 02:35:16;;;;;;;33.22;18.60;;;0.30;99.90;;;;;;5072481;28;20016;-57
2022/03/27 02:37:42;;;;;;;30.17;17.15;;;0.30;99.90;;;;;;5072124;28;20075;-59
2022/03/27 02:40:09;;;;;;;32.33;17.75;;;0.30;99.90;;;;;;5072218;28;20456;-59
2022/03/27 02:42:34;;;;;;;28.20;18.20;;;0.30;99.90;;;;;;5070860;28;20078;-53
2022/03/27 02:45:00;;;;;;;39.35;19.45;;;0.30;99.90;;;;;;5072156;28;20040;-58
2022/03/27 02:47:26;;;;;;;33.88;16.35;;;0.30;99.90;;;;;;5072161;28;20036;-58
2022/03/27 02:49:51;;;;;;;30.58;17.38;;;0.30;99.90;;;;;;5071947;28;20036;-58
2022/03/27 02:52:17;;;;;;;37.80;17.80;;;0.30;99.90;;;;;;5071872;28;20025;-59
2022/03/27 02:54:44;;;;;;;36.53;19.45;;;0.40;99.90;;;;;;5071817;28;20036;-59
2022/03/27 02:57:10;;;;;;;38.67;20.58;;;0.30;99.90;;;;;;5071883;28;20020;-58
2022/03/27 02:59:36;;;;;;;32.70;17.48;;;0.40;99.90;;;;;;5072041;28;20027;-57
2022/03/27 03:02:04;;;;;;;33.05;17.95;;;0.30;99.90;;;;;;5070412;28;20025;-55
2022/03/27 03:04:30;;;;;;;32.42;17.90;;;0.30;99.90;;;;;;5071972;28;20017;-54
2022/03/27 03:06:57;;;;;;;38.60;19.48;;;0.10;99.90;;;;;;5070716;28;20028;-56
2022/03/27 03:09:23;;;;;;;31.70;18.95;;;0.00;99.90;;;;;;5071582;28;20070;-56
2022/03/27 03:11:49;;;;;;;31.67;18.52;;;0.10;99.90;;;;;;5071568;28;20106;-57
2022/03/27 03:14:15;;;;;;;29.92;17.13;;;0.10;99.90;;;;;;5071511;28;20159;-57
2022/03/27 03:16:41;;;;;;;31.95;17.13;;;0.00;99.90;;;;;;5071617;28;20033;-59
2022/03/27 03:19:07;;;;;;;35.42;19.58;;;0.10;99.90;;;;;;5070330;28;20039;-58
2022/03/27 03:21:33;;;;;;;29.42;17.80;;;0.10;99.90;;;;;;5071529;28;20028;-59
2022/03/27 03:23:59;;;;;;;27.38;17.20;;;0.00;99.90;;;;;;5070129;28;20093;-54
2022/03/27 03:26:25;;;;;;;30.27;17.75;;;0.00;99.90;;;;;;5071548;28;20483;-58
2022/03/27 03:28:51;;;;;;;24.73;16.35;;;0.10;99.90;;;;;;5053535;28;20029;-58
2022/03/27 03:31:17;;;;;;;32.20;16.85;;;0.10;99.90;;;;;;5071382;28;20467;-58
2022/03/27 03:33:42;;;;;;;24.80;15.52;;;0.10;99.90;;;;;;5071525;28;20119;-58
2022/03/27 03:36:08;;;;;;;35.42;18.52;;;0.10;99.90;;;;;;5071508;28;20498;-57
2022/03/27 03:38:34;;;;;;;39.55;17.25;;;-0.10;99.90;;;;;;5071417;28;20471;-58
2022/03/27 03:41:00;;;;;;;30.05;18.98;;;-0.10;99.90;;;;;;5071391;28;20495;-53
2022/03/27 03:43:25;;;;;;;42.47;16.90;;;-0.10;99.90;;;;;;5071319;28;20025;-56
2022/03/27 03:45:51;;;;;;;31.65;18.67;;;-0.20;99.90;;;;;;5071451;28;20064;-57
2022/03/27 03:48:17;;;;;;;30.52;18.35;;;-0.10;99.90;;;;;;5071252;28;20035;-56
2022/03/27 03:50:43;;;;;;;32.63;17.75;;;-0.20;99.90;;;;;;5071292;28;20602;-56
2022/03/27 03:53:09;;;;;;;39.25;17.88;;;-0.20;99.90;;;;;;5071109;28;20028;-57
2022/03/27 03:55:35;;;;;;;29.70;17.38;;;-0.30;99.90;;;;;;5071287;28;20021;-53
2022/03/27 03:58:02;;;;;;;31.60;18.95;;;-0.20;99.90;;;;;;5071127;28;20372;-56
2022/03/27 04:00:28;;;;;;;30.48;19.33;;;-0.30;99.90;;;;;;5071267;28;20017;-56
2022/03/27 04:02:54;;;;;;;29.75;17.08;;;-0.30;99.90;;;;;;5071006;28;20524;-57
2022/03/27 04:05:21;;;;;;;29.38;18.33;;;-0.20;99.90;;;;;;5071266;28;20115;-56
2022/03/27 04:07:46;;;;;;;34.30;17.88;;;-0.30;99.90;;;;;;5071062;28;20107;-56
2022/03/27 04:10:12;;;;;;;34.35;19.17;;;-0.20;99.90;;;;;;5071263;28;20477;-55
2022/03/27 04:12:37;;;;;;;37.40;17.80;;;-0.10;99.90;;;;;;5071039;28;20039;-53
2022/03/27 04:15:04;;;;;;;31.38;18.88;;;-0.20;99.90;;;;;;5070761;28;20124;-56
2022/03/27 04:17:30;;;;;;;35.67;17.80;;;-0.20;99.90;;;;;;5070832;28;20132;-56
2022/03/27 04:19:56;;;;;;;33.08;19.30;;;-0.20;99.90;;;;;;5073465;28;20100;-58
2022/03/27 04:22:21;;;;;;;31.10;17.92;;;-0.30;99.90;;;;;;5073597;28;20059;-56
2022/03/27 04:24:47;;;;;;;31.63;19.33;;;-0.40;99.90;;;;;;5073330;28;20376;-57
2022/03/27 04:27:13;;;;;;;34.55;19.50;;;-0.40;99.90;;;;;;5074005;28;20517;-59
2022/03/27 04:29:38;;;;;;;32.25;18.80;;;-0.40;99.90;;;;;;5074679;28;20020;-55
2022/03/27 04:32:04;;;;;;;38.50;20.77;;;-0.30;99.90;;;;;;5073706;28;20388;-55
2022/03/27 04:34:30;;;;;;;33.70;18.33;;;-0.30;99.90;;;;;;5074653;28;20024;-57
2022/03/27 04:36:56;;;;;;;41.30;19.17;;;-0.30;99.90;;;;;;5074395;28;20420;-53
2022/03/27 04:39:22;;;;;;;31.58;19.08;;;-0.30;99.90;;;;;;5074712;28;20009;-54
2022/03/27 04:41:48;;;;;;;36.08;18.10;;;-0.30;99.90;;;;;;5074275;28;20631;-56
2022/03/27 04:44:14;;;;;;;34.72;18.58;;;-0.30;99.90;;;;;;5074430;28;20036;-56
2022/03/27 04:46:40;;;;;;;30.85;17.83;;;-0.30;99.90;;;;;;5074291;28;20021;-58
2022/03/27 04:49:05;;;;;;;31.92;19.83;;;-0.40;99.90;;;;;;5074229;28;20060;-56
2022/03/27 04:51:31;;;;;;;31.55;17.73;;;-0.50;99.90;;;;;;5074174;28;20111;-57
2022/03/27 04:53:57;;;;;;;45.78;18.45;;;-0.50;99.90;;;;;;5074247;28;20028;-55
2022/03/27 04:56:23;;;;;;;30.10;17.30;;;-0.50;99.90;;;;;;5074005;28;20487;-56
2022/03/27 04:58:49;;;;;;;31.63;18.75;;;-0.60;99.90;;;;;;5073963;28;20115;-56
2022/03/27 05:01:15;;;;;;;30.92;17.15;;;-0.60;99.90;;;;;;5073315;28;20060;-55
2022/03/27 05:03:41;;;;;;;34.35;19.05;;;-0.70;99.90;;;;;;5074091;28;20029;-59
2022/03/27 05:06:06;;;;;;;37.90;17.45;;;-0.60;99.90;;;;;;5073915;28;20052;-57
2022/03/27 05:08:35;;;;;;;35.65;18.45;;;-0.50;99.90;;;;;;5074105;28;20036;-55
2022/03/27 05:11:00;;;;;;;32.67;18.88;;;-0.50;99.90;;;;;;5073895;28;20028;-54
2022/03/27 05:13:26;;;;;;;38.40;18.77;;;-0.50;99.90;;;;;;5073915;28;20047;-57
2022/03/27 05:15:52;;;;;;;34.67;18.98;;;-0.60;99.90;;;;;;5073985;28;20355;-53
2022/03/27 05:18:17;;;;;;;41.35;19.48;;;-0.50;99.90;;;;;;5073717;28;20464;-57
2022/03/27 05:20:44;;;;;;;42.13;16.67;;;-0.50;99.90;;;;;;5073648;28;20056;-55
2022/03/27 05:23:10;;;;;;;32.83;18.67;;;-0.50;99.90;;;;;;5073763;28;20468;-53
2022/03/27 05:25:45;;;;;;;34.08;17.85;;;-0.40;99.90;;;;;;5073679;28;20021;-58
2022/03/27 05:28:26;;;;;;;34.03;17.70;;;-0.50;99.90;;;;;;5073694;28;20464;-58
2022/03/27 05:30:52;;;;;;;35.70;18.40;;;-0.50;99.90;;;;;;5072478;28;20412;-54
2022/03/27 05:33:18;;;;;;;39.50;19.27;;;-0.40;99.90;;;;;;5073441;28;20101;-56
2022/03/27 05:35:44;;;;;;;39.47;19.38;;;-0.30;99.90;;;;;;5072450;28;20049;-57
2022/03/27 05:38:10;;;;;;;37.67;19.10;;;-0.30;99.90;;;;;;5072249;28;20523;-56
2022/03/27 05:40:36;;;;;;;52.90;18.25;;;-0.20;99.90;;;;;;5072413;28;20020;-58
2022/03/27 05:43:02;;;;;;;42.10;19.05;;;-0.10;99.90;;;;;;5072592;28;20020;-58
2022/03/27 05:45:28;;;;;;;42.38;19.33;;;0.00;99.90;;;;;;5073042;28;20052;-57
2022/03/27 05:47:54;;;;;;;33.53;19.17;;;0.10;99.90;;;;;;5058663;28;20522;-60
2022/03/27 05:50:22;;;;;;;35.33;18.17;;;0.20;99.90;;;;;;5052971;28;20548;-56
2022/03/27 05:52:48;;;;;;;41.05;19.77;;;0.30;99.90;;;;;;5052821;28;20025;-58
2022/03/27 05:55:14;;;;;;;31.23;18.95;;;0.40;99.90;;;;;;5052742;28;20644;-55
2022/03/27 05:57:43;;;;;;;34.45;18.25;;;0.50;99.90;;;;;;5052912;28;20029;-58
2022/03/27 06:00:12;;;;;;;35.13;17.98;;;0.70;99.90;;;;;;5052650;28;20025;-58
2022/03/27 06:02:39;;;;;;;34.25;19.17;;;0.80;99.90;;;;;;5052644;28;20029;-58
2022/03/27 06:05:05;;;;;;;32.72;18.50;;;1.00;99.90;;;;;;5052607;28;20068;-57
2022/03/27 06:07:31;;;;;;;107.63;57.10;;;1.10;99.90;;;;;;5052743;28;20029;-54
2022/03/27 06:09:56;;;;;;;113.05;62.50;;;1.20;99.90;;;;;;5052577;28;20036;-58
2022/03/27 06:12:22;;;;;;;82.90;46.10;;;1.30;99.90;;;;;;5052643;28;20029;-54
2022/03/27 06:14:49;;;;;;;106.50;57.60;;;1.50;99.90;;;;;;5051848;28;20049;-55
2022/03/27 06:17:15;;;;;;;94.30;50.10;;;1.60;99.90;;;;;;5051270;28;20020;-55
2022/03/27 06:19:41;;;;;;;65.97;37.72;;;1.80;99.90;;;;;;5051607;28;20021;-57
2022/03/27 06:22:07;;;;;;;55.58;28.55;;;2.00;99.90;;;;;;5051430;28;20029;-54
2022/03/27 06:24:33;;;;;;;42.03;25.13;;;2.10;99.90;;;;;;5051695;28;20047;-58
2022/03/27 06:26:58;;;;;;;42.40;23.95;;;2.20;99.90;;;;;;5052362;28;20102;-54
2022/03/27 06:29:24;;;;;;;43.28;22.25;;;2.40;99.90;;;;;;5051610;28;20029;-53
2022/03/27 06:31:50;;;;;;;46.45;21.40;;;2.60;99.90;;;;;;5051419;28;20082;-57
2022/03/27 06:34:16;;;;;;;39.35;21.17;;;2.70;99.90;;;;;;5051477;28;20055;-56
2022/03/27 06:36:42;;;;;;;38.42;20.63;;;2.80;99.90;;;;;;5051850;28;20025;-56
2022/03/27 06:39:08;;;;;;;31.92;19.52;;;3.00;99.90;;;;;;5052234;28;20685;-51
2022/03/27 06:41:34;;;;;;;35.95;19.58;;;3.30;99.90;;;;;;5052183;28;20055;-57
2022/03/27 06:44:00;;;;;;;37.72;20.58;;;3.40;99.90;;;;;;5050912;28;20743;-59
2022/03/27 06:46:27;;;;;;;42.17;21.48;;;3.60;99.90;;;;;;5052065;28;20033;-56
2022/03/27 06:48:53;;;;;;;37.13;24.23;;;3.80;99.90;;;;;;5052236;28;20029;-56
2022/03/27 06:51:19;;;;;;;45.45;26.83;;;4.10;99.90;;;;;;5052061;28;20468;-53
2022/03/27 06:53:46;;;;;;;44.78;26.00;;;4.30;99.90;;;;;;5051850;28;20032;-58
2022/03/27 06:56:12;;;;;;;59.58;28.25;;;4.40;99.90;;;;;;5039046;28;20380;-55
2022/03/27 06:58:37;;;;;;;54.05;24.83;;;4.60;99.90;;;;;;5037579;28;20033;-56
2022/03/27 07:03:47;;;;;;;46.13;21.30;;;4.80;99.90;;;;;;5041561;28;20416;-53
2022/03/27 07:06:19;;;;;;;47.38;22.73;;;4.90;99.90;;;;;;5040173;28;20037;-59
2022/03/27 07:08:46;;;;;;;40.15;21.63;;;5.10;99.90;;;;;;5042621;28;20056;-58
2022/03/27 07:11:13;;;;;;;44.60;20.73;;;5.20;99.90;;;;;;5040787;28;20499;-56
2022/03/27 07:13:38;;;;;;;37.42;21.48;;;5.30;99.90;;;;;;5041093;28;20048;-58
2022/03/27 07:16:04;;;;;;;38.42;20.65;;;5.40;99.90;;;;;;5039787;28;20381;-57
2022/03/27 07:18:30;;;;;;;36.20;19.13;;;5.60;99.90;;;;;;5040692;28;20176;-59
2022/03/27 07:20:56;;;;;;;44.20;19.63;;;5.70;99.90;;;;;;5040287;28;20123;-58
2022/03/27 07:23:21;;;;;;;34.83;18.92;;;5.80;99.90;;;;;;5040678;28;20033;-54
2022/03/27 07:25:50;;;;;;;37.08;21.67;;;6.00;99.90;;;;;;5040773;28;20032;-56
2022/03/27 07:28:18;;;;;;;36.10;20.08;;;6.20;99.90;;;;;;5041011;28;20447;-56
2022/03/27 07:30:45;;;;;;;37.08;20.15;;;6.40;99.90;;;;;;5040906;28;20111;-57
2022/03/27 07:33:12;;;;;;;32.47;20.33;;;6.70;99.90;;;;;;5039720;28;20025;-56
2022/03/27 07:35:38;;;;;;;36.83;21.40;;;6.90;99.90;;;;;;5040649;28;20053;-54
2022/03/27 07:38:05;;;;;;;30.17;19.60;;;7.20;99.90;;;;;;5040903;28;20436;-55
2022/03/27 07:40:31;;;;;;;38.97;19.60;;;7.50;99.90;;;;;;5038825;28;20365;-58
2022/03/27 07:42:57;;;;;;;30.20;17.08;;;7.70;99.90;;;;;;5040795;28;20083;-57
2022/03/27 07:45:26;;;;;;;33.88;19.10;;;8.10;99.90;;;;;;5040684;28;20103;-55
2022/03/27 07:47:54;;;;;;;32.38;18.02;;;8.50;97.30;;;;;;5039748;28;20033;-58
2022/03/27 07:50:23;;;;;;;37.10;19.33;;;8.80;94.40;;;;;;5040773;28;20090;-57
2022/03/27 07:52:49;;;;;;;38.08;17.23;;;9.10;93.30;;;;;;5041558;28;20041;-55
2022/03/27 07:55:16;;;;;;;37.72;18.55;;;9.30;92.60;;;;;;5044692;28;20025;-56
2022/03/27 07:57:42;;;;;;;32.67;17.88;;;9.50;91.40;;;;;;5044533;28;21693;-59
2022/03/27 08:00:10;;;;;;;35.72;18.70;;;9.70;90.60;;;;;;5044304;28;20029;-57
2022/03/27 08:02:37;;;;;;;35.90;17.42;;;9.80;89.30;;;;;;5045018;28;20029;-57
2022/03/27 08:05:04;;;;;;;40.58;17.50;;;9.90;89.10;;;;;;5044209;28;20134;-58
2022/03/27 08:07:30;;;;;;;42.75;17.70;;;10.10;89.10;;;;;;5044602;28;20542;-58
2022/03/27 08:09:55;;;;;;;262.02;125.63;;;10.20;86.60;;;;;;5044069;28;20575;-54
2022/03/27 08:12:21;;;;;;;42.90;22.38;;;10.40;85.30;;;;;;5044644;28;20116;-57
2022/03/27 08:14:48;;;;;;;55.28;31.65;;;10.50;82.20;;;;;;5043517;28;20480;-59
2022/03/27 08:17:17;;;;;;;35.15;18.48;;;10.50;81.90;;;;;;5044409;28;20029;-59
2022/03/27 08:19:47;;;;;;;35.92;19.65;;;10.60;81.90;;;;;;5044794;28;20033;-58
2022/03/27 08:22:13;;;;;;;33.78;17.92;;;10.70;80.00;;;;;;5044530;28;20090;-56
2022/03/27 08:24:39;;;;;;;39.58;18.65;;;10.80;79.70;;;;;;5044107;28;20491;-57
2022/03/27 08:27:07;;;;;;;37.05;17.67;;;10.90;78.20;;;;;;5043212;28;20037;-57
2022/03/27 08:29:37;;;;;;;39.15;16.40;;;10.90;78.80;;;;;;5053717;28;20044;-57
2022/03/27 08:32:05;;;;;;;31.63;18.50;;;11.10;79.10;;;;;;5043868;28;20115;-58
2022/03/27 08:34:36;;;;;;;66.28;21.58;;;11.20;79.50;;;;;;5043869;28;20120;-57
2022/03/27 08:37:04;;;;;;;37.60;25.00;;;11.30;80.10;;;;;;5063185;28;20086;-58
2022/03/27 08:39:30;;;;;;;47.63;19.65;;;11.30;80.40;;;;;;5062911;28;20017;-56
2022/03/27 08:41:57;;;;;;;31.02;18.02;;;11.40;81.80;;;;;;5047613;28;20029;-58
2022/03/27 08:44:25;;;;;;;31.58;20.23;;;11.50;82.10;;;;;;5053533;28;20044;-57
2022/03/27 08:46:52;;;;;;;33.55;18.25;;;11.60;81.90;;;;;;5053665;28;20065;-57
2022/03/27 08:49:33;;;;;;;33.58;18.40;;;11.80;86.30;;;;;;5054210;28;20024;-57
2022/03/27 08:52:02;;;;;;;30.00;18.30;;;12.00;84.50;;;;;;5053870;28;20060;-57
2022/03/27 08:55:00;;;;;;;33.63;20.02;;;12.10;85.40;;;;;;5054234;28;20013;-55
2022/03/27 08:57:38;;;;;;;35.10;16.58;;;12.40;84.10;;;;;;5055126;28;20098;-58
2022/03/27 09:00:04;;;;;;;32.05;20.02;;;12.50;83.20;;;;;;5053393;28;20108;-55
2022/03/27 09:02:30;;;;;;;31.27;17.95;;;12.50;83.00;;;;;;5053060;28;20013;-58
2022/03/27 09:04:57;;;;;;;27.75;17.25;;;12.70;82.90;;;;;;5052094;28;20557;-58
2022/03/27 09:07:29;;;;;;;30.65;17.88;;;12.60;82.00;;;;;;5054120;28;20535;-57
2022/03/27 09:09:58;;;;;;;32.58;19.20;;;12.70;82.80;;;;;;5053766;28;20048;-57
2022/03/27 09:12:24;;;;;;;31.88;18.40;;;13.00;82.90;;;;;;5053654;28;20424;-59
2022/03/27 09:14:50;;;;;;;29.58;17.17;;;13.20;80.40;;;;;;5052824;28;20053;-58
2022/03/27 09:17:16;;;;;;;28.58;18.17;;;13.20;80.20;;;;;;5053779;28;20101;-57
2022/03/27 09:19:47;;;;;;;31.00;17.85;;;13.30;80.90;;;;;;5053713;28;20728;-59
2022/03/27 09:22:21;;;;;;;37.50;19.02;;;13.60;81.00;;;;;;5053419;28;20033;-55
2022/03/27 09:24:58;;;;;;;27.73;18.75;;;13.50;79.10;;;;;;5053505;28;20025;-58
2022/03/27 09:27:37;;;;;;;28.77;18.58;;;13.70;80.20;;;;;;5053348;28;20021;-57
2022/03/27 09:30:07;;;;;;;31.27;19.55;;;14.00;80.00;;;;;;5053466;28;20025;-56
2022/03/27 09:32:36;;;;;;;32.10;19.08;;;14.30;78.20;;;;;;5053478;28;20483;-58
2022/03/27 09:35:10;;;;;;;29.98;18.17;;;14.50;75.60;;;;;;5053234;28;20028;-58
2022/03/27 09:37:41;;;;;;;25.15;17.52;;;14.60;77.90;;;;;;5051958;28;20449;-54
2022/03/27 09:40:09;;;;;;;26.08;17.73;;;14.70;77.20;;;;;;5053213;28;20025;-57
2022/03/27 09:42:37;;;;;;;41.67;20.73;;;14.70;73.20;;;;;;5053450;28;20029;-58
2022/03/27 09:45:20;;;;;;;31.58;18.67;;;14.70;71.90;;;;;;5051983;28;20511;-57
2022/03/27 09:47:48;;;;;;;36.30;18.73;;;14.70;71.50;;;;;;5053259;28;20040;-57
2022/03/27 09:50:33;;;;;;;31.70;19.55;;;14.70;71.00;;;;;;5053229;28;20793;-59
2022/03/27 09:53:17;;;;;;;31.52;18.02;;;15.00;71.20;;;;;;5052522;28;20029;-57
2022/03/27 09:55:43;;;;;;;30.75;17.85;;;15.20;69.80;;;;;;5052616;28;20541;-58
2022/03/27 09:58:09;;;;;;;33.95;19.42;;;15.20;69.70;;;;;;5053009;28;20025;-59
2022/03/27 10:00:35;;;;;;;34.83;19.77;;;15.10;67.70;;;;;;5052945;28;20377;-58
2022/03/27 10:03:10;;;;;;;38.92;19.40;;;14.90;68.50;;;;;;5051655;28;20066;-59
2022/03/27 10:05:36;;;;;;;38.53;19.70;;;15.40;68.10;;;;;;5052881;28;20023;-57
2022/03/27 10:08:03;;;;;;;30.25;19.35;;;15.30;65.00;;;;;;5052657;28;20530;-58
2022/03/27 10:10:29;;;;;;;32.67;19.05;;;15.70;66.10;;;;;;5052768;28;20365;-60
2022/03/27 10:12:59;;;;;;;39.40;19.05;;;15.80;64.10;;;;;;5052458;28;20040;-59
2022/03/27 10:15:29;;;;;;;31.92;19.52;;;15.60;62.80;;;;;;5052317;28;20029;-58
2022/03/27 10:18:00;;;;;;;32.92;20.17;;;15.80;63.30;;;;;;5052555;28;20025;-58
2022/03/27 10:20:32;;;;;;;35.08;20.92;;;16.00;62.10;;;;;;5052579;28;20108;-58
2022/03/27 10:23:05;;;;;;;40.08;20.77;;;16.00;61.20;;;;;;5052420;28;20025;-59
2022/03/27 10:25:39;;;;;;;42.80;19.70;;;16.40;61.80;;;;;;5052671;28;20355;-58
2022/03/27 10:28:08;;;;;;;38.38;20.25;;;16.10;59.60;;;;;;5052285;28;20102;-58
2022/03/27 10:30:34;;;;;;;33.15;18.80;;;16.10;59.20;;;;;;5052432;28;20029;-58
2022/03/27 10:33:01;;;;;;;34.47;20.30;;;16.60;61.40;;;;;;5040822;28;20036;-59
2022/03/27 10:35:42;;;;;;;36.03;21.15;;;16.40;58.40;;;;;;5037744;28;20032;-58
2022/03/27 10:38:25;;;;;;;44.80;20.88;;;16.60;60.00;;;;;;5058146;28;20050;-56
2022/03/27 10:41:13;;;;;;;34.25;19.38;;;16.70;58.50;;;;;;5041160;28;20063;-60
2022/03/27 10:43:51;;;;;;;38.97;18.85;;;17.00;58.30;;;;;;5041341;28;20037;-59
2022/03/27 10:46:20;;;;;;;38.63;19.98;;;17.20;56.90;;;;;;5040746;28;20055;-59
2022/03/27 10:48:48;;;;;;;36.30;19.75;;;17.20;56.10;;;;;;5040088;28;20518;-58
2022/03/27 10:51:25;;;;;;;50.78;21.73;;;17.20;57.20;;;;;;5040782;28;20045;-59
2022/03/27 10:54:19;;;;;;;39.72;19.02;;;17.40;55.70;;;;;;5041217;28;20025;-58
2022/03/27 10:56:46;;;;;;;;;;;17.90;55.20;;;;;;5041393;28;20389;-57
2022/03/27 10:59:18;;;;;;;37.42;18.67;;;18.00;53.00;;;;;;5040051;28;19958;-58
2022/03/27 11:02:03;;;;;;;34.50;18.35;;;17.90;53.90;;;;;;5041063;28;20067;-58
2022/03/27 11:04:36;;;;;;;33.65;18.98;;;18.20;54.00;;;;;;5040356;28;20498;-59
2022/03/27 11:07:18;;;;;;;26.83;16.98;;;19.30;51.80;;;;;;5040685;28;20374;-59
2022/03/27 11:09:45;;;;;;;33.25;19.33;;;20.60;47.70;;;;;;5040964;28;20088;-59
2022/03/27 11:12:25;;;;;;;37.08;19.15;;;21.10;45.20;;;;;;5039418;28;20033;-59
2022/03/27 11:15:05;;;;;;;32.33;17.75;;;21.60;44.20;;;;;;5040522;28;20041;-60
2022/03/27 11:17:49;;;;;;;40.45;17.40;;;22.60;42.70;;;;;;5041308;28;20457;-59
2022/03/27 11:20:21;;;;;;;23.42;15.02;;;23.70;41.30;;;;;;5040765;28;20025;-60
2022/03/27 11:23:02;;;;;;;27.95;15.63;;;23.80;39.40;;;;;;5040236;28;20051;-60
2022/03/27 11:25:36;;;;;;;27.33;15.68;;;24.00;39.10;;;;;;5040401;28;20064;-60
2022/03/27 11:28:02;;;;;;;24.95;15.60;;;24.70;39.10;;;;;;5039808;28;20041;-60
2022/03/27 11:30:28;;;;;;;34.33;18.20;;;24.80;37.60;;;;;;5040613;28;20032;-59
2022/03/27 11:33:30;;;;;;;27.08;12.68;;;23.80;37.00;;;;;;5040537;28;20048;-60
2022/03/27 11:36:01;;;;;;;23.80;12.05;;;24.90;38.20;;;;;;5057345;28;20112;-60
2022/03/27 11:38:32;;;;;;;24.77;13.48;;;25.00;37.50;;;;;;5059236;28;20036;-60
2022/03/27 11:41:44;;;;;;;28.90;13.85;;;25.10;35.80;;;;;;5060955;28;20053;-60
2022/03/27 11:44:22;;;;;;;20.60;13.63;;;25.10;35.80;;;;;;5060299;28;20032;-60
2022/03/27 11:46:50;;;;;;;23.58;12.80;;;25.80;35.40;;;;;;5040799;28;20078;-60
2022/03/27 11:49:17;;;;;;;24.67;16.48;;;25.10;34.50;;;;;;5040808;28;20029;-60
2022/03/27 11:51:43;;;;;;;29.60;15.63;;;23.50;35.50;;;;;;5040739;28;20041;-60
2022/03/27 11:54:22;;;;;;;20.38;13.30;;;23.00;36.40;;;;;;5040968;28;20044;-60
2022/03/27 11:56:59;;;;;;;24.15;12.90;;;24.40;35.60;;;;;;5040676;28;20604;-60
2022/03/27 11:59:28;;;;;;;19.67;11.98;;;24.20;37.00;;;;;;5039673;28;20124;-60
2022/03/27 12:01:56;;;;;;;18.27;12.95;;;24.80;36.30;;;;;;5038924;28;20488;-60
2022/03/27 12:04:22;;;;;;;23.85;12.73;;;24.70;34.30;;;;;;5039098;28;20131;-60
2022/03/27 12:06:58;;;;;;;24.65;13.90;;;24.90;34.50;;;;;;5038276;28;20121;-60
2022/03/27 12:09:28;;;;;;;25.27;14.13;;;24.30;34.60;;;;;;5040280;28;20472;-60
2022/03/27 12:12:07;;;;;;;31.52;15.00;;;24.50;34.40;;;;;;5039807;28;20118;-60
2022/03/27 12:14:34;;;;;;;24.65;14.40;;;24.80;34.10;;;;;;5052032;28;20041;-60
2022/03/27 12:16:59;;;;;;;22.52;14.00;;;25.30;34.90;;;;;;5070300;28;20040;-60
2022/03/27 12:19:25;;;;;;;24.77;14.48;;;24.80;33.50;;;;;;5070559;28;20650;-60
2022/03/27 12:21:51;;;;;;;22.55;13.40;;;25.90;34.00;;;;;;5070648;28;20029;-60
2022/03/27 12:24:18;;;;;;;21.95;13.85;;;26.00;34.20;;;;;;5070505;28;20106;-60
2022/03/27 12:29:42;;;;;;;24.90;14.00;;;26.70;33.30;;;;;;5070573;28;20052;-60
2022/03/27 12:32:14;;;;;;;21.15;13.23;;;26.50;34.00;;;;;;5070586;28;20115;-60
2022/03/27 12:34:46;;;;;;;23.33;13.27;;;26.80;33.30;;;;;;5070085;28;20545;-60
2022/03/27 12:37:15;;;;;;;22.45;13.18;;;26.30;32.60;;;;;;5070608;28;20107;-61
2022/03/27 12:39:47;;;;;;;22.00;13.57;;;27.00;33.70;;;;;;5072567;28;20174;-60
2022/03/27 12:42:28;;;;;;;23.52;13.07;;;27.40;32.60;;;;;;5074431;28;20103;-60
2022/03/27 12:44:54;;;;;;;21.15;14.00;;;28.40;31.70;;;;;;5074083;28;20031;-60